Hlavní strana
METAR-TAF:

METAR-TAF

Letiště :

Mezinárodní letiště Beníta Juáreze

Ciudad de México, Mexiko

zeměpisná šířka: 19-26N, zeměpisná délka: 099-06W, výška: 2238 m

Aktuální stav počasí

Zpráva byla vytvořena před 32 minutami, v 21:45 UTC
Východní vítr 5 kt
Teplota 20°C
Vlhkost vzduchu 26%
Tlak 1024 hPa
Viditelnost: 11.3 km
Jasno

METAR: MMMX 162145Z 10005KT 7SM SKC 20/00 A3023 NOSIG RMK HZY ISOL CU AND CI

Čas: 16:17 (22:17 UTC)

Předpověď počasí

Zpráva byla vytvořena před 6 hodinami a 6 minutami, v 16:11 UTC
Předpověď platná od 16 v 18 UTC do 17 v 24 UTC
Jihovýchodní vítr 6 kt
Viditelnost: 9.7 km
Jasno
zákal
Od 17 v 0200 UTC
Západní vítr 6 kt
Viditelnost: 9.7 km
Jasno
zákal
Od 17 v 1600 UTC
Západní vítr 8 kt
Viditelnost: 10 km
Jasno

TAF: MMMX 161611Z 1618/1724 13006KT 6SM HZ SKC TX21/1621Z TN07/1712Z FM170200 28006KT 6SM HZ SKC FM171600 28008KT P6SM SKC

Stav a předpovědi počasí z více než 4 000 letišť (zprávy METAR a TAF).

Červené a žluté tečky na mapě představují dostupné meteorologické stanice.

Když kurzor umístíte na tečku, zobrazí se název stanice.

Pak kliknutím zobrazíte stav a předpověď počasí.

Chcete-li změnit mapu, kliknutím na zelené tlačítko se znaménkem +mapu přiblížíte, kliknutím na zelené tlačítko se znaménkem – mapu oddálíte a kliknutím na zelené šipky přejdete na sousední mapy.


METAR-TAF: